메인 페이지
METAR-TAF:

METAR-TAF

공항 :

싱가포르, 싱가포르

싱가포르 창이 국제공항

위도: 01-22N, 경도: 103-59E, 고도: 5m

현재 날씨관측

예보는 29분 전, 00:30시(UTC)에 발표되었습니다.
북동5kt풍과 동북동풍을 오가는
온도 26°C
습도 89%
기압 1011 hPa
시정: 6000m
고도 1800ft 상공 구름 조금
고도 30000ft 상공 구름 많음

METAR: WSSS 180030Z 04005KT 350V070 6000 FEW018 BKN300 26/24 Q1011 NOSIG

시각: 08:59 (00:59 UTC)

예보

예보는 54분 전, 00:05시(UTC)에 발표되었습니다.
예보 대상 시간: 18일 00시부터 19일 06시까지 (UTC)
7kt
시정 10km 이상
고도 1800ft 상공 구름 조금, 적란운.
고도 2000ft 상공 구름 보통
일시적
18일 08시부터 18일 11시까지 (UTC)
시정: 4000m
고도 1200ft 상공 구름 조금, 적란운.
고도 1500ft 상공 구름 많음
소나기

TAF: WSSS 180005Z 1800/1906 01007KT 9999 FEW018CB SCT020 TEMPO 1808/1811 4000 SHRA FEW012CB BKN015

4,000개 이상의 공항 관측 자료 및 예보 (METAR 및 TAF 보고).

지도상에서 검색 가능한 기상관측소가 노란 점과 빨간 점으로 표시되어 있습니다.

기상관측소 명을 보려면 표시 위로 마우스를 이동하세요.

날씨 관측과 예보를 보려면 클릭하세요.

지도 변경 : 확대하려면 엑스 표시가 있는 녹색 버튼, 축소하려면 빼기 표시가 있는 녹색 버튼, 다음 페이지의 지도를 보려면 녹색 화살표를 클릭하세요.


METAR-TAF: